| time (UTC) | temp C | wind direction | speed KPH | gust KPH | rain 1hr cm | rain 24hr cm | rain mn cm | humidity % | barometer mb |
| 20260507212019 | 13 | 248 | 3.2 | 6.4 | 0.00 | 0.05 | 0.05 | 70 | 1014.0 |
| 20260507211017 | 13 | 203 | 3.2 | 6.4 | 0.00 | 0.05 | 0.05 | 70 | 1014.1 |
| 20260507210018 | 13 | 270 | 3.2 | 9.7 | 0.00 | 0.05 | 0.05 | 70 | 1014.0 |
| 20260507205017 | 13 | 270 | 3.2 | 8.0 | 0.00 | 0.05 | 0.05 | 69 | 1013.9 |
| 20260507204019 | 14 | 270 | 3.2 | 9.7 | 0.00 | 0.05 | 0.05 | 69 | 1013.7 |
| 20260507203037 | 14 | 270 | 4.8 | 11.3 | 0.00 | 0.05 | 0.05 | 68 | 1013.6 |
| 20260507201018 | 14 | 270 | 4.8 | 11.3 | 0.00 | 0.05 | 0.05 | 68 | 1013.3 |
| 20260507200017 | 14 | 270 | 4.8 | 11.3 | 0.03 | 0.05 | 0.05 | 69 | 1013.2 |
| 20260507195017 | 13 | 270 | 8.0 | 16.1 | 0.03 | 0.05 | 0.05 | 71 | 1013.2 |
| 20260507194017 | 13 | 270 | 6.4 | 11.3 | 0.03 | 0.05 | 0.05 | 75 | 1013.0 |
| 20260507193017 | 13 | 293 | 1.6 | 8.0 | 0.03 | 0.05 | 0.05 | 77 | 1012.8 |
| 20260507192038 | 12 | 270 | 3.2 | 6.4 | 0.03 | 0.05 | 0.05 | 79 | 1012.7 |
| 20260507191017 | 12 | 225 | 1.6 | 4.8 | 0.03 | 0.05 | 0.05 | 82 | 1012.6 |
| 20260507190039 | 13 | 203 | 1.6 | 3.2 | 0.00 | 0.03 | 0.03 | 82 | 1012.5 |
| 20260507185017 | 13 | 203 | 1.6 | 3.2 | 0.00 | 0.03 | 0.03 | 81 | 1012.4 |
| 20260507184017 | 13 | 0.0 | 3.2 | 0.00 | 0.03 | 0.03 | 81 | 1012.3 | |
| 20260507183017 | 13 | 203 | 3.2 | 8.0 | 0.00 | 0.03 | 0.03 | 80 | 1012.3 |
| 20260507182018 | 13 | 203 | 3.2 | 6.4 | 0.00 | 0.03 | 0.03 | 79 | 1012.1 |
| 20260507181017 | 13 | 180 | 1.6 | 6.4 | 0.00 | 0.03 | 0.03 | 79 | 1012.2 |
| 20260507180015 | 13 | 158 | 3.2 | 9.7 | 0.00 | 0.03 | 0.03 | 80 | 1012.1 |
| 20260507175017 | 13 | 113 | 1.6 | 6.4 | 0.00 | 0.03 | 0.03 | 80 | 1012.0 |
| 20260507174018 | 14 | 0.0 | 3.2 | 0.03 | 0.03 | 0.03 | 79 | 1012.0 | |
| 20260507173017 | 14 | 23 | 1.6 | 6.4 | 0.03 | 0.03 | 0.03 | 76 | 1011.9 |
| 20260507172017 | 14 | 0 | 3.2 | 6.4 | 0.03 | 0.03 | 0.03 | 76 | 1011.9 |
| 20260507171017 | 14 | 0.0 | 3.2 | 0.03 | 0.03 | 0.03 | 75 | 1011.7 | |
| 20260507170017 | 15 | 315 | 1.6 | 4.8 | 0.03 | 0.03 | 0.03 | 75 | 1011.6 |
| 20260507165017 | 15 | 158 | 4.8 | 9.7 | 0.03 | 0.03 | 0.03 | 71 | 1011.4 |
| 20260507164017 | 16 | 180 | 4.8 | 11.3 | 0.00 | 0.00 | 0.00 | 66 | 1011.5 |
| 20260507163017 | 16 | 180 | 4.8 | 8.0 | 0.00 | 0.00 | 0.00 | 59 | 1011.4 |
| 20260507162017 | 16 | 203 | 3.2 | 6.4 | 0.00 | 0.00 | 0.00 | 58 | 1011.2 |
| 20260507161017 | 17 | 180 | 8.0 | 16.1 | 0.00 | 0.00 | 0.00 | 57 | 1011.0 |
| 20260507160019 | 17 | 203 | 4.8 | 12.9 | 0.00 | 0.00 | 0.00 | 55 | 1010.9 |
| 20260507155017 | 18 | 203 | 11.3 | 20.9 | 0.00 | 0.00 | 0.00 | 55 | 1010.8 |
| 20260507154037 | 18 | 180 | 14.5 | 27.4 | 0.00 | 0.00 | 0.00 | 51 | 1010.8 |
| 20260507153017 | 19 | 180 | 9.7 | 17.7 | 0.00 | 0.00 | 0.00 | 49 | 1010.7 |
| 20260507152017 | 19 | 180 | 8.0 | 16.1 | 0.00 | 0.00 | 0.00 | 48 | 1010.6 |
| 20260507151037 | 20 | 203 | 4.8 | 11.3 | 0.00 | 0.00 | 0.00 | 48 | 1010.6 |
| 20260507150039 | 20 | 180 | 3.2 | 8.0 | 0.00 | 0.00 | 0.00 | 48 | 1010.6 |
| 20260507145017 | 20 | 203 | 6.4 | 11.3 | 0.00 | 0.00 | 0.00 | 46 | 1010.6 |
| 20260507144037 | 20 | 225 | 3.2 | 8.0 | 0.00 | 0.00 | 0.00 | 48 | 1010.5 |
| 20260507143019 | 20 | 0.0 | 3.2 | 0.00 | 0.00 | 0.00 | 46 | 1010.5 | |
| 20260507142017 | 20 | 270 | 3.2 | 8.0 | 0.00 | 0.00 | 0.00 | 46 | 1010.5 |
| 20260507141037 | 20 | 203 | 3.2 | 9.7 | 0.00 | 0.00 | 0.00 | 45 | 1010.6 |
| 20260507140017 | 21 | 248 | 3.2 | 8.0 | 0.00 | 0.00 | 0.00 | 44 | 1010.6 |
| 20260507135017 | 20 | 180 | 3.2 | 6.4 | 0.00 | 0.00 | 0.00 | 46 | 1010.7 |
| 20260507134017 | 20 | 225 | 4.8 | 11.3 | 0.00 | 0.00 | 0.00 | 48 | 1010.7 |
| 20260507133017 | 20 | 180 | 3.2 | 9.7 | 0.00 | 0.00 | 0.00 | 49 | 1010.7 |
| 20260507132017 | 20 | 180 | 6.4 | 12.9 | 0.00 | 0.00 | 0.00 | 47 | 1010.8 |
| 20260507131017 | 19 | 158 | 6.4 | 12.9 | 0.00 | 0.00 | 0.00 | 49 | 1010.9 |
| 20260507130017 | 19 | 203 | 3.2 | 8.0 | 0.00 | 0.00 | 0.00 | 47 | 1011.0 |
| 20260507125017 | 19 | 248 | 6.4 | 12.9 | 0.00 | 0.00 | 0.00 | 47 | 1011.1 |
| 20260507124017 | 19 | 225 | 8.0 | 11.3 | 0.00 | 0.00 | 0.00 | 48 | 1011.1 |
| 20260507123017 | 18 | 248 | 4.8 | 9.7 | 0.00 | 0.00 | 0.00 | 48 | 1011.1 |
| 20260507122017 | 18 | 270 | 6.4 | 14.5 | 0.00 | 0.00 | 0.00 | 47 | 1011.2 |
| 20260507121038 | 19 | 293 | 6.4 | 14.5 | 0.00 | 0.00 | 0.00 | 47 | 1011.3 |
| 20260507120017 | 19 | 270 | 8.0 | 14.5 | 0.00 | 0.00 | 0.00 | 47 | 1011.3 |
| 20260507115017 | 20 | 270 | 9.7 | 27.4 | 0.00 | 0.00 | 0.00 | 48 | 1011.4 |
| 20260507114037 | 19 | 270 | 9.7 | 24.1 | 0.00 | 0.00 | 0.00 | 50 | 1011.6 |
| 20260507113017 | 19 | 225 | 9.7 | 17.7 | 0.00 | 0.00 | 0.00 | 51 | 1011.6 |
| 20260507112015 | 18 | 270 | 8.0 | 16.1 | 0.00 | 0.00 | 0.00 | 52 | 1011.7 |
| 20260507111015 | 18 | 225 | 6.4 | 14.5 | 0.00 | 0.00 | 0.00 | 52 | 1011.8 |
| 20260507110015 | 18 | 270 | 8.0 | 17.7 | 0.00 | 0.00 | 0.00 | 51 | 1011.9 |
| 20260507105015 | 18 | 203 | 11.3 | 20.9 | 0.00 | 0.00 | 0.00 | 51 | 1012.0 |
| 20260507104016 | 20 | 203 | 9.7 | 22.5 | 0.00 | 0.00 | 0.00 | 52 | 1012.1 |
| 20260507103037 | 18 | 270 | 8.0 | 14.5 | 0.00 | 0.00 | 0.00 | 52 | 1012.0 |
| 20260507102015 | 17 | 270 | 6.4 | 11.3 | 0.00 | 0.00 | 0.00 | 56 | 1012.1 |
| 20260507101015 | 17 | 248 | 8.0 | 17.7 | 0.00 | 0.00 | 0.00 | 55 | 1012.0 |
| 20260507100015 | 17 | 225 | 12.9 | 22.5 | 0.00 | 0.00 | 0.00 | 55 | 1012.0 |
| 20260507095015 | 17 | 248 | 6.4 | 12.9 | 0.00 | 0.00 | 0.00 | 57 | 1011.9 |
| 20260507094015 | 16 | 225 | 9.7 | 19.3 | 0.00 | 0.00 | 0.00 | 58 | 1012.0 |
| 20260507093015 | 16 | 225 | 11.3 | 19.3 | 0.00 | 0.00 | 0.00 | 58 | 1012.1 |
| 20260507092016 | 16 | 225 | 9.7 | 22.5 | 0.00 | 0.00 | 0.00 | 58 | 1011.8 |
| 20260507091035 | 16 | 270 | 8.0 | 17.7 | 0.00 | 0.00 | 0.00 | 57 | 1011.7 |
| 20260507090019 | 17 | 270 | 12.9 | 27.4 | 0.00 | 0.00 | 0.00 | 56 | 1011.6 |
| 20260507085016 | 16 | 270 | 8.0 | 14.5 | 0.00 | 0.00 | 0.00 | 56 | 1011.6 |
| 20260507084015 | 17 | 270 | 8.0 | 16.1 | 0.00 | 0.00 | 0.00 | 56 | 1011.5 |
| 20260507083015 | 17 | 270 | 9.7 | 20.9 | 0.00 | 0.00 | 0.00 | 57 | 1011.3 |
| 20260507082016 | 16 | 270 | 11.3 | 22.5 | 0.00 | 0.00 | 0.00 | 59 | 1011.3 |
| 20260507081035 | 16 | 270 | 8.0 | 14.5 | 0.00 | 0.00 | 0.00 | 59 | 1011.2 |
| 20260507080015 | 16 | 270 | 12.9 | 24.1 | 0.00 | 0.00 | 0.00 | 59 | 1011.1 |
| 20260507075015 | 16 | 270 | 12.9 | 22.5 | 0.00 | 0.00 | 0.00 | 60 | 1011.2 |
| 20260507074015 | 15 | 293 | 11.3 | 19.3 | 0.00 | 0.00 | 0.00 | 64 | 1010.8 |
| 20260507073016 | 15 | 270 | 9.7 | 16.1 | 0.00 | 0.00 | 0.00 | 64 | 1010.8 |
| 20260507072015 | 14 | 270 | 9.7 | 19.3 | 0.00 | 0.00 | 0.00 | 66 | 1010.6 |
| 20260507071015 | 13 | 270 | 12.9 | 19.3 | 0.00 | 0.00 | 0.00 | 66 | 1010.6 |
| 20260507070036 | 13 | 270 | 14.5 | 32.2 | 0.00 | 0.00 | 0.00 | 66 | 1010.5 |
| 20260507065035 | 13 | 270 | 16.1 | 25.7 | 0.00 | 0.00 | 0.00 | 66 | 1010.6 |
| 20260507064015 | 13 | 270 | 16.1 | 29.0 | 0.00 | 0.00 | 0.00 | 66 | 1010.5 |
| 20260507063036 | 13 | 270 | 17.7 | 29.0 | 0.00 | 0.00 | 0.00 | 66 | 1010.5 |
| 20260507062015 | 13 | 270 | 20.9 | 35.4 | 0.00 | 0.00 | 0.00 | 66 | 1010.5 |
| 20260507061015 | 13 | 293 | 17.7 | 27.4 | 0.00 | 0.00 | 0.00 | 67 | 1010.3 |
| 20260507060037 | 13 | 293 | 14.5 | 27.4 | 0.00 | 0.00 | 0.00 | 66 | 1010.2 |
| 20260507055016 | 13 | 270 | 12.9 | 27.4 | 0.00 | 0.00 | 0.00 | 66 | 1010.0 |
| 20260507054015 | 13 | 270 | 16.1 | 25.7 | 0.00 | 0.00 | 0.00 | 65 | 1010.1 |
| 20260507053035 | 13 | 270 | 14.5 | 27.4 | 0.00 | 0.00 | 0.00 | 66 | 1009.9 |
| 20260507052015 | 13 | 270 | 14.5 | 29.0 | 0.00 | 0.00 | 0.00 | 67 | 1009.8 |
| 20260507051015 | 13 | 293 | 14.5 | 27.4 | 0.00 | 0.00 | 0.00 | 67 | 1009.7 |
| 20260507050015 | 13 | 293 | 17.7 | 29.0 | 0.00 | 0.00 | 0.00 | 67 | 1009.4 |
| 20260507045036 | 13 | 270 | 16.1 | 27.4 | 0.00 | 0.00 | 0.00 | 67 | 1009.4 |
| 20260507044015 | 13 | 270 | 12.9 | 24.1 | 0.00 | 0.00 | 0.00 | 68 | 1009.4 |
| 20260507043015 | 13 | 270 | 14.5 | 24.1 | 0.00 | 0.00 | 0.00 | 69 | 1009.3 |
| 20260507042017 | 13 | 270 | 14.5 | 24.1 | 0.00 | 0.00 | 0.00 | 69 | 1009.1 |
| 20260507041015 | 12 | 270 | 12.9 | 22.5 | 0.00 | 0.00 | 0.00 | 70 | 1009.1 |
| 20260507040016 | 12 | 270 | 12.9 | 24.1 | 0.00 | 0.00 | 0.00 | 71 | 1008.9 |
| 20260507035015 | 12 | 270 | 14.5 | 29.0 | 0.00 | 0.00 | 0.00 | 71 | 1009.2 |
| 20260507034035 | 12 | 270 | 12.9 | 22.5 | 0.00 | 0.00 | 0.00 | 70 | 1009.1 |
| 20260507033017 | 13 | 270 | 14.5 | 29.0 | 0.00 | 0.00 | 0.00 | 69 | 1009.2 |
| 20260507032016 | 13 | 270 | 16.1 | 30.6 | 0.00 | 0.00 | 0.00 | 69 | 1009.0 |
| 20260507031016 | 13 | 270 | 12.9 | 24.1 | 0.00 | 0.00 | 0.00 | 69 | 1009.0 |
| 20260507030016 | 13 | 270 | 11.3 | 24.1 | 0.00 | 0.00 | 0.00 | 69 | 1009.0 |
| 20260507025015 | 13 | 270 | 16.1 | 25.7 | 0.00 | 0.00 | 0.00 | 69 | 1008.9 |
| 20260507024036 | 13 | 270 | 11.3 | 20.9 | 0.00 | 0.00 | 0.00 | 69 | 1008.6 |
| 20260507023015 | 13 | 270 | 14.5 | 29.0 | 0.00 | 0.00 | 0.00 | 70 | 1008.5 |
| 20260507022015 | 13 | 270 | 11.3 | 22.5 | 0.00 | 0.00 | 0.00 | 70 | 1008.5 |
| 20260507021016 | 13 | 270 | 14.5 | 24.1 | 0.00 | 0.00 | 0.00 | 70 | 1008.5 |
| 20260507020016 | 13 | 270 | 14.5 | 25.7 | 0.00 | 0.00 | 0.00 | 71 | 1008.5 |
| 20260507015056 | 13 | 270 | 14.5 | 24.1 | 0.00 | 0.00 | 0.00 | 72 | 1008.5 |
| 20260507014015 | 13 | 270 | 12.9 | 22.5 | 0.00 | 0.00 | 0.00 | 71 | 1008.4 |
| 20260507013015 | 13 | 270 | 14.5 | 25.7 | 0.00 | 0.00 | 0.00 | 71 | 1008.4 |
| 20260507012015 | 14 | 270 | 14.5 | 27.4 | 0.00 | 0.00 | 0.00 | 71 | 1008.2 |
| 20260507010017 | 14 | 270 | 11.3 | 27.4 | 0.00 | 0.00 | 0.00 | 70 | 1008.1 |
| 20260507005016 | 14 | 270 | 16.1 | 35.4 | 0.00 | 0.00 | 0.00 | 70 | 1007.8 |
| 20260507004015 | 14 | 270 | 14.5 | 32.2 | 0.00 | 0.00 | 0.00 | 70 | 1007.7 |
| 20260507003017 | 15 | 270 | 12.9 | 25.7 | 0.00 | 0.00 | 0.00 | 70 | 1007.7 |
| 20260507002016 | 15 | 270 | 16.1 | 27.4 | 0.00 | 0.00 | 0.00 | 70 | 1007.6 |
| 20260507001015 | 15 | 270 | 11.3 | 27.4 | 0.00 | 0.00 | 0.00 | 70 | 1007.4 |
| 20260507000037 | 15 | 270 | 12.9 | 20.9 | 0.00 | 0.00 | 0.00 | 71 | 1007.5 |
| 20260506235035 | 15 | 270 | 12.9 | 27.4 | 0.00 | 0.00 | 0.00 | 71 | 1007.3 |
| 20260506233016 | 15 | 270 | 11.3 | 24.1 | 0.00 | 0.00 | 0.00 | 71 | 1007.3 |
| 20260506232015 | 15 | 225 | 11.3 | 20.9 | 0.00 | 0.00 | 0.00 | 71 | 1007.1 |
| 20260506231016 | 15 | 225 | 11.3 | 25.7 | 0.00 | 0.00 | 0.00 | 71 | 1006.9 |
| 20260506230036 | 15 | 270 | 9.7 | 22.5 | 0.00 | 0.00 | 0.00 | 69 | 1006.7 |
| 20260506225036 | 16 | 270 | 11.3 | 25.7 | 0.00 | 0.00 | 0.00 | 67 | 1006.7 |
| 20260506224015 | 16 | 270 | 12.9 | 30.6 | 0.00 | 0.00 | 0.00 | 66 | 1006.4 |
| 20260506223016 | 16 | 248 | 9.7 | 16.1 | 0.00 | 0.00 | 0.00 | 65 | 1006.1 |
| 20260506222016 | 16 | 225 | 14.5 | 30.6 | 0.00 | 0.00 | 0.00 | 64 | 1005.9 |
| 20260506221016 | 16 | 225 | 11.3 | 20.9 | 0.00 | 0.00 | 0.00 | 64 | 1005.7 |
| 20260506220016 | 15 | 248 | 4.8 | 16.1 | 0.00 | 0.00 | 0.00 | 69 | 1005.3 |
| 20260506215017 | 15 | 135 | 1.6 | 6.4 | 0.00 | 0.00 | 0.00 | 67 | 1005.0 |
| 20260506214015 | 16 | 135 | 1.6 | 6.4 | 0.00 | 0.00 | 0.00 | 65 | 1004.9 |
| 20260506213015 | 16 | 135 | 1.6 | 11.3 | 0.00 | 0.00 | 0.00 | 64 | 1004.8 |